Time;durP1;ratioP1;P1;durP2;ratioP2;P2;SDS_P1;SDS_P2;PMS_P1;PMS_P2;Temp;Humidity;BMP_temperature;BMP_pressure;BME280_temperature;BME280_humidity;BME280_pressure;Samples;Min_cycle;Max_cycle;Signal;HPM_P1;HPM_P2
2022/12/02 00:01:25;;;;;;;52.45;24.75;;;;;;;;;;4937271;29;20031;-71
2022/12/02 00:03:51;;;;;;;48.42;24.00;;;;;;;;;;4933354;29;20035;-70
2022/12/02 00:06:24;;;;;;;48.58;24.00;;;;;;;;;;4938382;29;20047;-72
2022/12/02 00:08:50;;;;;;;48.13;24.08;;;;;;;;;;4930039;29;20028;-70
2022/12/02 00:11:26;;;;;;;48.55;25.40;;;;;;;;;;4930500;29;20039;-70
2022/12/02 00:13:52;;;;;;;56.53;26.77;;;;;;;;;;4912334;29;20024;-70
2022/12/02 00:16:22;;;;;;;48.63;24.05;;;;;;;;;;4931571;29;20099;-73
2022/12/02 00:18:49;;;;;;;47.97;24.23;;;;;;;;;;4928171;29;20537;-70
2022/12/02 00:21:15;;;;;;;52.88;24.35;;;;;;;;;;4933716;29;20039;-72
2022/12/02 00:23:42;;;;;;;48.53;24.67;;;;;;;;;;4934248;29;20023;-71
2022/12/02 00:26:08;;;;;;;49.85;25.63;;;;;;;;;;4913757;29;20044;-73
2022/12/02 00:28:34;;;;;;;55.20;26.02;;;;;;;;;;4928570;29;20028;-72
2022/12/02 00:31:00;;;;;;;49.53;24.13;;;;;;;;;;4933199;28;20058;-72
2022/12/02 00:33:26;;;;;;;49.45;24.35;;;;;;;;;;4929294;29;20040;-71
2022/12/02 00:35:52;;;;;;;48.60;23.83;;;;;;;;;;4931765;29;20028;-71
2022/12/02 00:38:18;;;;;;;49.15;26.48;;;;;;;;;;4929283;29;20036;-75
2022/12/02 00:40:44;;;;;;;50.17;25.98;;;;;;;;;;4930641;29;20039;-72
2022/12/02 00:48:40;;;;;;;48.15;24.30;;;;;;;;;;4924605;29;20107;-71
2022/12/02 00:51:06;;;;;;;44.80;24.30;;;;;;;;;;4931184;29;20031;-72
2022/12/02 00:53:32;;;;;;;44.80;23.38;;;;;;;;;;4929595;29;20111;-71
2022/12/02 00:55:58;;;;;;;49.05;23.67;;;;;;;;;;4932437;29;20028;-71
2022/12/02 00:58:24;;;;;;;50.83;25.02;;;;;;;;;;4933882;29;20039;-71
2022/12/02 01:00:50;;;;;;;46.65;23.63;;;;;;;;;;4912197;29;20044;-71
2022/12/02 01:03:16;;;;;;;51.90;23.75;;;;;;;;;;4931133;29;20044;-72
2022/12/02 01:05:42;;;;;;;54.40;25.75;;;;;;;;;;4931790;29;20035;-72
2022/12/02 01:08:08;;;;;;;47.97;23.55;;;;;;;;;;4912305;29;20035;-72
2022/12/02 01:10:35;;;;;;;50.83;24.42;;;;;;;;;;4935763;29;20127;-72
2022/12/02 01:13:01;;;;;;;50.45;25.17;;;;;;;;;;4944540;29;20046;-77
2022/12/02 01:15:27;;;;;;;49.60;25.35;;;;;;;;;;4931256;29;20114;-77
2022/12/02 01:17:53;;;;;;;48.97;24.77;;;;;;;;;;4932605;29;20035;-73
2022/12/02 01:20:19;;;;;;;52.47;25.98;;;;;;;;;;4932337;29;20047;-72
2022/12/02 01:22:45;;;;;;;51.13;26.25;;;;;;;;;;4933869;29;20031;-73
2022/12/02 01:25:11;;;;;;;48.38;25.48;;;;;;;;;;4933456;29;20090;-71
2022/12/02 01:27:37;;;;;;;53.25;25.48;;;;;;;;;;4933630;29;20031;-71
2022/12/02 01:30:03;;;;;;;53.45;24.85;;;;;;;;;;4946871;28;20145;-75
2022/12/02 01:32:29;;;;;;;52.00;25.65;;;;;;;;;;4936067;28;20445;-70
2022/12/02 01:34:55;;;;;;;51.30;25.85;;;;;;;;;;4953521;29;20031;-73
2022/12/02 01:37:21;;;;;;;48.13;26.55;;;;;;;;;;4951638;28;20191;-77
2022/12/02 01:39:47;;;;;;;47.42;24.88;;;;;;;;;;4960908;28;20035;-71
2022/12/02 01:42:13;;;;;;;55.25;25.38;;;;;;;;;;4950888;28;20031;-71
2022/12/02 01:44:40;;;;;;;52.63;25.45;;;;;;;;;;4953109;29;20083;-71
2022/12/02 01:47:06;;;;;;;50.97;27.63;;;;;;;;;;4951805;28;20027;-72
2022/12/02 01:49:32;;;;;;;46.70;26.42;;;;;;;;;;4949696;28;20035;-72
2022/12/02 01:51:58;;;;;;;50.85;26.95;;;;;;;;;;4950382;28;20106;-72
2022/12/02 01:54:24;;;;;;;52.53;26.23;;;;;;;;;;4963814;28;20570;-72
2022/12/02 01:56:50;;;;;;;49.00;26.02;;;;;;;;;;4959276;28;20039;-71
2022/12/02 01:59:17;;;;;;;55.60;26.63;;;;;;;;;;4966344;28;20034;-71
2022/12/02 02:01:43;;;;;;;55.35;25.65;;;;;;;;;;4950055;28;20110;-73
2022/12/02 02:04:10;;;;;;;48.03;25.13;;;;;;;;;;4950883;28;20039;-72
2022/12/02 02:06:38;;;;;;;48.03;25.05;;;;;;;;;;4953367;28;20028;-72
2022/12/02 02:09:06;;;;;;;49.70;25.60;;;;;;;;;;4952385;29;20035;-74
2022/12/02 02:11:32;;;;;;;47.72;25.50;;;;;;;;;;4955197;28;20131;-70
2022/12/02 02:13:59;;;;;;;51.95;24.98;;;;;;;;;;4949829;28;20035;-70
2022/12/02 02:16:25;;;;;;;53.35;24.20;;;;;;;;;;4950693;28;20033;-73
2022/12/02 02:18:51;;;;;;;48.22;25.05;;;;;;;;;;4949374;28;20428;-71
2022/12/02 02:21:20;;;;;;;51.65;26.48;;;;;;;;;;4958571;28;20064;-72
2022/12/02 02:23:46;;;;;;;48.63;24.63;;;;;;;;;;4957634;28;20140;-70
2022/12/02 02:26:12;;;;;;;50.30;24.92;;;;;;;;;;4971335;28;20027;-72
2022/12/02 02:28:38;;;;;;;44.40;22.98;;;;;;;;;;4965210;28;20476;-73
2022/12/02 02:31:04;;;;;;;47.03;24.65;;;;;;;;;;4958477;28;20134;-71
2022/12/02 02:33:31;;;;;;;46.05;22.77;;;;;;;;;;4949398;28;20035;-71
2022/12/02 02:35:57;;;;;;;51.42;24.05;;;;;;;;;;4953154;28;20039;-74
2022/12/02 02:38:24;;;;;;;44.50;25.05;;;;;;;;;;4949635;28;20031;-69
2022/12/02 02:40:52;;;;;;;46.58;22.80;;;;;;;;;;4970131;28;20038;-69
2022/12/02 02:43:20;;;;;;;44.92;23.23;;;;;;;;;;4962292;28;20412;-74
2022/12/02 02:45:47;;;;;;;43.35;21.15;;;;;;;;;;4953762;28;20032;-70
2022/12/02 02:48:13;;;;;;;46.28;22.33;;;;;;;;;;4945579;28;20035;-73
2022/12/02 02:50:41;;;;;;;42.95;21.77;;;;;;;;;;4949422;28;20039;-71
2022/12/02 02:53:07;;;;;;;42.85;21.80;;;;;;;;;;4950610;28;20031;-70
2022/12/02 02:55:34;;;;;;;37.92;20.08;;;;;;;;;;4951400;28;20214;-76
2022/12/02 02:58:10;;;;;;;44.92;22.13;;;;;;;;;;4952515;28;20157;-72
2022/12/02 03:00:36;;;;;;;44.10;19.40;;;;;;;;;;4950518;28;20041;-74
2022/12/02 03:03:03;;;;;;;39.75;20.08;;;;;;;;;;4950024;28;20066;-75
2022/12/02 03:05:29;;;;;;;45.67;19.40;;;;;;;;;;4955355;28;20027;-72
2022/12/02 03:07:55;;;;;;;37.33;18.42;;;;;;;;;;4963569;28;20027;-78
2022/12/02 03:10:21;;;;;;;38.00;17.85;;;;;;;;;;4949353;28;20551;-72
2022/12/02 03:12:52;;;;;;;36.85;18.08;;;;;;;;;;4960377;28;20043;-70
2022/12/02 03:15:18;;;;;;;32.17;17.50;;;;;;;;;;4947713;28;20035;-71
2022/12/02 03:17:45;;;;;;;38.63;18.45;;;;;;;;;;4951315;29;20031;-73
2022/12/02 03:20:11;;;;;;;36.60;18.17;;;;;;;;;;4956117;28;20046;-73
2022/12/02 03:22:37;;;;;;;38.28;19.05;;;;;;;;;;4948734;28;20036;-73
2022/12/02 03:25:03;;;;;;;36.78;18.58;;;;;;;;;;4950225;28;20034;-71
2022/12/02 03:27:29;;;;;;;40.10;18.70;;;;;;;;;;4948855;28;20128;-71
2022/12/02 03:29:55;;;;;;;44.22;18.58;;;;;;;;;;4944494;28;20520;-70
2022/12/02 03:32:21;;;;;;;38.75;19.92;;;;;;;;;;4931268;29;20410;-70
2022/12/02 03:34:48;;;;;;;41.10;20.17;;;;;;;;;;4929175;29;20028;-70
2022/12/02 03:37:14;;;;;;;46.95;20.27;;;;;;;;;;4931341;29;20024;-72
2022/12/02 03:39:40;;;;;;;49.95;22.80;;;;;;;;;;4931607;29;20458;-73
2022/12/02 03:42:06;;;;;;;43.30;20.58;;;;;;;;;;4925085;29;20046;-71
2022/12/02 03:44:32;;;;;;;44.72;21.13;;;;;;;;;;4932158;29;20119;-70
2022/12/02 03:46:59;;;;;;;45.97;21.50;;;;;;;;;;4937849;29;20057;-72
2022/12/02 03:49:25;;;;;;;49.65;23.17;;;;;;;;;;4947937;29;20051;-69
2022/12/02 03:51:51;;;;;;;46.92;21.25;;;;;;;;;;4936111;29;20054;-69
2022/12/02 03:54:17;;;;;;;47.58;22.00;;;;;;;;;;4931385;29;20430;-70
2022/12/02 03:56:43;;;;;;;55.75;24.67;;;;;;;;;;4930655;29;20036;-71
2022/12/02 03:59:11;;;;;;;45.25;22.60;;;;;;;;;;4931534;29;20055;-76
2022/12/02 04:01:37;;;;;;;50.90;24.73;;;;;;;;;;4926333;29;20095;-72
2022/12/02 04:04:03;;;;;;;50.08;23.05;;;;;;;;;;4943979;29;20035;-70
2022/12/02 04:06:29;;;;;;;46.53;23.02;;;;;;;;;;4935545;29;20035;-72
2022/12/02 04:08:55;;;;;;;51.85;23.35;;;;;;;;;;4931178;29;20036;-71
2022/12/02 04:11:21;;;;;;;48.15;23.17;;;;;;;;;;4930177;29;20503;-72
2022/12/02 04:13:47;;;;;;;50.10;25.13;;;;;;;;;;4928283;29;20040;-71
2022/12/02 04:16:13;;;;;;;56.60;26.75;;;;;;;;;;4931400;29;20065;-70
2022/12/02 04:18:40;;;;;;;52.85;24.50;;;;;;;;;;4930093;29;20036;-70
2022/12/02 04:21:06;;;;;;;55.47;25.17;;;;;;;;;;4933848;29;20342;-72
2022/12/02 04:23:32;;;;;;;50.15;24.77;;;;;;;;;;4936022;29;20685;-71
2022/12/02 04:25:58;;;;;;;53.15;23.35;;;;;;;;;;4932640;29;20039;-70
2022/12/02 04:28:24;;;;;;;53.42;24.20;;;;;;;;;;4929067;29;20501;-72
2022/12/02 04:30:50;;;;;;;46.28;23.52;;;;;;;;;;4930543;29;20353;-70
2022/12/02 04:33:16;;;;;;;54.20;25.80;;;;;;;;;;4929922;29;20075;-74
2022/12/02 04:35:42;;;;;;;55.42;24.90;;;;;;;;;;4927367;29;20388;-73
2022/12/02 04:38:08;;;;;;;51.95;23.48;;;;;;;;;;4935002;29;20036;-73
2022/12/02 04:40:34;;;;;;;50.40;23.58;;;;;;;;;;4942097;29;20051;-71
2022/12/02 04:43:00;;;;;;;43.35;21.88;;;;;;;;;;4944540;28;20039;-70
2022/12/02 04:45:26;;;;;;;48.33;23.40;;;;;;;;;;4916330;29;20031;-70
2022/12/02 04:47:52;;;;;;;46.72;22.63;;;;;;;;;;4930679;29;20036;-72
2022/12/02 04:50:18;;;;;;;51.92;21.65;;;;;;;;;;4944232;29;20090;-72
2022/12/02 04:52:44;;;;;;;50.05;23.83;;;;;;;;;;4931964;29;20031;-80
2022/12/02 04:55:10;;;;;;;48.35;23.27;;;;;;;;;;4934111;29;20070;-71
2022/12/02 04:57:36;;;;;;;49.15;23.98;;;;;;;;;;4931572;29;20242;-71
2022/12/02 05:00:03;;;;;;;50.45;24.63;;;;;;;;;;4932633;29;20040;-70
2022/12/02 05:02:29;;;;;;;54.10;25.17;;;;;;;;;;4934409;29;20123;-71
2022/12/02 05:04:55;;;;;;;49.45;24.40;;;;;;;;;;4939525;29;20031;-71
2022/12/02 05:07:21;;;;;;;48.83;23.00;;;;;;;;;;4942644;29;20096;-72
2022/12/02 05:09:47;;;;;;;51.78;23.25;;;;;;;;;;4925130;29;20035;-71
2022/12/02 05:12:15;;;;;;;53.35;23.40;;;;;;;;;;4942627;29;20047;-71
2022/12/02 05:14:41;;;;;;;51.42;23.23;;;;;;;;;;4942238;29;20040;-71
2022/12/02 05:17:07;;;;;;;54.35;25.73;;;;;;;;;;4917929;29;20496;-72
2022/12/02 05:19:33;;;;;;;47.95;21.27;;;;;;;;;;4937174;29;20122;-70
2022/12/02 05:21:59;;;;;;;48.42;22.83;;;;;;;;;;4931086;29;20066;-72
2022/12/02 05:24:25;;;;;;;51.13;21.95;;;;;;;;;;4931159;29;20040;-70
2022/12/02 05:26:51;;;;;;;49.17;21.90;;;;;;;;;;4941373;29;20373;-69
2022/12/02 05:29:17;;;;;;;50.28;23.95;;;;;;;;;;4933076;29;20036;-74
2022/12/02 05:31:43;;;;;;;50.60;23.05;;;;;;;;;;4919755;29;20346;-71
2022/12/02 05:34:09;;;;;;;52.53;23.23;;;;;;;;;;4934003;29;20129;-71
2022/12/02 05:36:35;;;;;;;52.33;22.95;;;;;;;;;;4929999;29;20038;-72
2022/12/02 05:39:01;;;;;;;47.60;24.27;;;;;;;;;;4922145;29;20072;-75
2022/12/02 05:41:27;;;;;;;59.58;25.40;;;;;;;;;;4926010;29;20248;-76
2022/12/02 05:43:54;;;;;;;58.13;26.65;;;;;;;;;;4927083;29;20043;-72
2022/12/02 05:46:21;;;;;;;54.22;24.92;;;;;;;;;;4932098;29;20051;-77
2022/12/02 05:48:48;;;;;;;66.43;27.15;;;;;;;;;;4926882;29;20375;-74
2022/12/02 05:51:21;;;;;;;64.47;27.80;;;;;;;;;;4910882;29;20097;-72
2022/12/02 05:53:48;;;;;;;59.10;24.42;;;;;;;;;;4930233;29;20114;-72
2022/12/02 05:56:17;;;;;;;60.10;23.13;;;;;;;;;;4935706;29;20079;-74
2022/12/02 05:58:43;;;;;;;61.15;28.75;;;;;;;;;;4933217;29;20034;-72
2022/12/02 06:01:26;;;;;;;56.40;24.75;;;;;;;;;;4931597;29;20485;-71
2022/12/02 06:03:52;;;;;;;56.22;24.77;;;;;;;;;;4934669;29;20523;-72
2022/12/02 06:06:19;;;;;;;58.83;24.02;;;;;;;;;;4941235;29;20035;-73
2022/12/02 06:08:45;;;;;;;60.35;25.27;;;;;;;;;;4929965;29;20090;-72
2022/12/02 06:11:22;;;;;;;58.67;24.50;;;;;;;;;;4931589;29;20071;-71
2022/12/02 06:13:48;;;;;;;62.97;26.30;;;;;;;;;;4938801;28;20027;-72
2022/12/02 06:16:19;;;;;;;67.72;25.17;;;;;;;;;;4948842;28;20039;-71
2022/12/02 06:18:45;;;;;;;56.45;24.52;;;;;;;;;;4934767;29;20095;-73
2022/12/02 06:21:13;;;;;;;65.82;26.15;;;;;;;;;;4933069;29;20609;-73
2022/12/02 06:23:43;;;;;;;73.05;27.30;;;;;;;;;;4932060;29;20031;-71
2022/12/02 06:26:12;;;;;;;56.75;26.25;;;;;;;;;;4945039;28;20079;-73
2022/12/02 06:28:39;;;;;;;61.22;24.75;;;;;;;;;;4923662;29;20119;-72
2022/12/02 06:31:27;;;;;;;59.28;27.65;;;;;;;;;;4943696;28;20109;-75
2022/12/02 06:33:55;;;;;;;95.82;41.22;;;;;;;;;;4929661;28;20032;-72
2022/12/02 06:36:23;;;;;;;78.45;31.60;;;;;;;;;;4932372;28;20023;-79
2022/12/02 06:39:12;;;;;;;64.80;27.08;;;;;;;;;;4949662;28;20027;-75
2022/12/02 06:41:38;;;;;;;61.22;25.17;;;;;;;;;;4934468;28;20051;-76
2022/12/02 06:46:58;;;;;;;59.25;25.17;;;;;;;;;;4949364;28;20065;-71
2022/12/02 06:49:30;;;;;;;56.40;25.85;;;;;;;;;;4953437;28;20027;-72
2022/12/02 06:51:57;;;;;;;60.35;26.17;;;;;;;;;;4950385;28;20047;-72
2022/12/02 06:54:27;;;;;;;65.50;26.50;;;;;;;;;;4949348;28;20031;-74
2022/12/02 06:56:55;;;;;;;57.28;24.75;;;;;;;;;;4944922;28;20035;-74
2022/12/02 06:59:22;;;;;;;65.45;27.02;;;;;;;;;;4947396;28;20035;-72
2022/12/02 07:01:52;;;;;;;71.80;30.70;;;;;;;;;;4950516;28;20023;-75
2022/12/02 07:04:24;;;;;;;81.03;37.80;;;;;;;;;;4944750;28;20038;-72
2022/12/02 07:06:51;;;;;;;61.17;27.73;;;;;;;;;;4953873;28;20031;-72
2022/12/02 07:09:36;;;;;;;61.30;26.13;;;;;;;;;;4950800;28;20134;-73
2022/12/02 07:12:02;;;;;;;61.30;25.20;;;;;;;;;;4954560;28;20042;-71
2022/12/02 07:14:37;;;;;;;55.15;25.42;;;;;;;;;;4953444;28;20050;-72
2022/12/02 07:17:23;;;;;;;59.38;27.52;;;;;;;;;;4949693;28;20035;-71
2022/12/02 07:19:56;;;;;;;66.13;27.17;;;;;;;;;;4950158;28;20027;-71
2022/12/02 07:22:24;;;;;;;60.53;25.45;;;;;;;;;;4949116;28;20030;-71
2022/12/02 07:24:52;;;;;;;66.78;27.02;;;;;;;;;;4944953;28;20086;-72
2022/12/02 07:27:24;;;;;;;60.55;26.17;;;;;;;;;;4939579;28;20035;-72
2022/12/02 07:29:50;;;;;;;55.83;24.97;;;;;;;;;;4935995;28;21390;-76
2022/12/02 07:32:16;;;;;;;63.67;25.95;;;;;;;;;;4944373;28;20364;-76
2022/12/02 07:34:42;;;;;;;59.17;25.23;;;;;;;;;;4942582;28;20046;-73
2022/12/02 07:37:08;;;;;;;60.60;25.30;;;;;;;;;;4942909;28;20171;-73
2022/12/02 07:39:34;;;;;;;71.70;30.50;;;;;;;;;;4941044;28;20035;-73
2022/12/02 07:42:01;;;;;;;83.55;38.75;;;;;;;;;;4953003;28;20409;-73
2022/12/02 07:44:27;;;;;;;67.10;28.13;;;;;;;;;;4962351;28;20026;-75
2022/12/02 07:46:53;;;;;;;58.05;25.05;;;;;;;;;;4945171;28;20068;-73
2022/12/02 07:49:19;;;;;;;69.68;26.92;;;;;;;;;;4945622;28;20050;-75
2022/12/02 07:51:45;;;;;;;64.60;27.17;;;;;;;;;;4937155;28;20548;-76
2022/12/02 07:54:11;;;;;;;62.45;27.63;;;;;;;;;;4941289;28;20134;-74
2022/12/02 07:56:38;;;;;;;68.35;25.98;;;;;;;;;;4940211;28;20093;-73
2022/12/02 07:59:04;;;;;;;65.55;26.42;;;;;;;;;;4942347;28;20036;-76
2022/12/02 08:01:30;;;;;;;65.45;26.17;;;;;;;;;;4943233;28;20741;-78
2022/12/02 08:03:56;;;;;;;66.07;27.10;;;;;;;;;;4948757;28;20043;-76
2022/12/02 08:06:22;;;;;;;70.22;28.77;;;;;;;;;;4955873;28;20026;-74
2022/12/02 08:08:48;;;;;;;71.82;27.88;;;;;;;;;;4970305;28;20034;-74
2022/12/02 08:11:14;;;;;;;61.53;26.23;;;;;;;;;;4955646;28;20051;-74
2022/12/02 08:13:40;;;;;;;71.50;29.45;;;;;;;;;;4962256;28;20074;-73
2022/12/02 08:16:07;;;;;;;67.22;27.77;;;;;;;;;;4957006;28;20111;-74
2022/12/02 08:18:33;;;;;;;62.15;25.40;;;;;;;;;;4928344;29;20371;-74
2022/12/02 08:20:59;;;;;;;63.85;26.33;;;;;;;;;;4949859;28;20057;-75
2022/12/02 08:23:25;;;;;;;62.28;27.52;;;;;;;;;;4969786;28;20030;-72
2022/12/02 08:25:52;;;;;;;67.35;27.45;;;;;;;;;;4957607;28;20027;-72
2022/12/02 08:28:18;;;;;;;70.28;27.30;;;;;;;;;;4950617;28;20087;-78
2022/12/02 08:30:44;;;;;;;62.42;25.85;;;;;;;;;;4938764;28;20059;-74
2022/12/02 08:33:10;;;;;;;60.38;25.30;;;;;;;;;;4929286;29;20130;-72
2022/12/02 08:35:38;;;;;;;69.05;27.48;;;;;;;;;;4933429;29;20039;-73
2022/12/02 08:38:04;;;;;;;61.47;26.55;;;;;;;;;;4931444;29;20481;-71
2022/12/02 08:40:30;;;;;;;64.30;26.42;;;;;;;;;;4928183;29;20148;-71
2022/12/02 08:42:56;;;;;;;66.40;28.83;;;;;;;;;;4929562;29;20388;-71
2022/12/02 08:45:23;;;;;;;62.78;26.10;;;;;;;;;;4926234;29;20456;-73
2022/12/02 08:47:49;;;;;;;58.95;25.65;;;;;;;;;;4934088;29;20027;-71
2022/12/02 08:50:15;;;;;;;58.92;25.45;;;;;;;;;;4930222;29;20062;-73
2022/12/02 08:52:41;;;;;;;63.40;26.95;;;;;;;;;;4932523;29;20036;-74
2022/12/02 08:55:07;;;;;;;54.47;24.85;;;;;;;;;;4928848;29;20126;-72
2022/12/02 08:57:33;;;;;;;56.88;26.15;;;;;;;;;;4921380;29;20063;-73
2022/12/02 08:59:59;;;;;;;51.55;24.23;;;;;;;;;;4922399;29;20040;-72
2022/12/02 09:02:28;;;;;;;50.50;25.23;;;;;;;;;;4941351;29;20548;-72
2022/12/02 09:04:54;;;;;;;52.53;24.73;;;;;;;;;;4943258;29;20737;-75
2022/12/02 09:07:20;;;;;;;52.72;24.13;;;;;;;;;;4906805;29;20044;-77
2022/12/02 09:09:46;;;;;;;55.28;24.42;;;;;;;;;;4909484;29;20031;-74
2022/12/02 09:12:12;;;;;;;56.90;25.00;;;;;;;;;;4942492;29;20682;-71
2022/12/02 09:14:38;;;;;;;57.70;26.30;;;;;;;;;;4938637;29;20032;-71
2022/12/02 09:17:06;;;;;;;54.88;24.15;;;;;;;;;;4931693;29;20036;-73
2022/12/02 09:19:32;;;;;;;52.80;22.40;;;;;;;;;;4933078;29;20078;-74
2022/12/02 09:21:58;;;;;;;52.60;22.88;;;;;;;;;;4931110;29;20036;-78
2022/12/02 09:24:24;;;;;;;55.28;22.63;;;;;;;;;;4950225;29;20042;-73
2022/12/02 09:26:50;;;;;;;50.17;21.13;;;;;;;;;;4936247;29;20032;-73
2022/12/02 09:29:16;;;;;;;45.88;19.65;;;;;;;;;;4941896;29;20035;-73
2022/12/02 09:31:42;;;;;;;47.10;20.85;;;;;;;;;;4920741;28;20055;-73
2022/12/02 09:34:08;;;;;;;51.88;22.13;;;;;;;;;;4927847;29;20107;-72
2022/12/02 09:36:34;;;;;;;47.13;19.55;;;;;;;;;;4924100;29;20028;-72
2022/12/02 09:39:00;;;;;;;49.10;21.08;;;;;;;;;;4943767;29;20094;-78
2022/12/02 09:41:26;;;;;;;47.90;20.30;;;;;;;;;;4941822;29;20044;-72
2022/12/02 09:43:53;;;;;;;50.67;21.80;;;;;;;;;;4930738;29;20357;-73
2022/12/02 09:46:19;;;;;;;47.45;21.10;;;;;;;;;;4929958;29;20035;-77
2022/12/02 09:48:45;;;;;;;49.90;19.45;;;;;;;;;;4931757;29;20083;-73
2022/12/02 09:51:11;;;;;;;49.33;21.63;;;;;;;;;;4951468;28;20495;-72
2022/12/02 09:53:40;;;;;;;48.33;20.48;;;;;;;;;;4932118;29;20034;-75
2022/12/02 09:56:10;;;;;;;49.67;21.00;;;;;;;;;;4936180;29;20015;-76
2022/12/02 09:58:36;;;;;;;48.28;20.15;;;;;;;;;;4952628;28;20547;-74
2022/12/02 10:01:03;;;;;;;40.88;18.90;;;;;;;;;;4933430;29;20027;-73
2022/12/02 10:03:29;;;;;;;50.03;21.45;;;;;;;;;;4930413;29;20076;-72
2022/12/02 10:05:55;;;;;;;47.38;19.45;;;;;;;;;;4932420;29;20111;-75
2022/12/02 10:08:26;;;;;;;44.35;19.35;;;;;;;;;;4929648;29;20042;-74
2022/12/02 10:10:55;;;;;;;44.28;18.67;;;;;;;;;;4931605;29;20051;-75
2022/12/02 10:13:23;;;;;;;55.38;22.35;;;;;;;;;;4928018;29;20063;-73
2022/12/02 10:15:49;;;;;;;51.78;20.88;;;;;;;;;;4927533;29;20537;-74
2022/12/02 10:18:23;;;;;;;48.50;20.05;;;;;;;;;;4926757;29;20448;-73
2022/12/02 10:20:50;;;;;;;50.97;21.52;;;;;;;;;;4940108;29;20464;-72
2022/12/02 10:23:17;;;;;;;52.28;21.13;;;;;;;;;;4930152;29;20024;-74
2022/12/02 10:25:53;;;;;;;51.17;20.70;;;;;;;;;;4937135;29;20408;-73
2022/12/02 10:28:22;;;;;;;50.88;20.27;;;;;;;;;;4929246;29;20442;-76
2022/12/02 10:30:52;;;;;;;49.25;20.58;;;;;;;;;;4916373;28;20124;-73
2022/12/02 10:33:22;;;;;;;48.53;20.30;;;;;;;;;;4947960;28;20539;-78
2022/12/02 10:35:49;;;;;;;49.75;21.75;;;;;;;;;;4962425;28;20030;-75
2022/12/02 10:38:34;;;;;;;47.97;21.08;;;;;;;;;;4963948;28;20364;-79
2022/12/02 10:41:15;;;;;;;48.00;22.30;;;;;;;;;;4936375;28;20077;-72
2022/12/02 10:43:42;;;;;;;45.92;19.95;;;;;;;;;;4931140;28;20043;-72
2022/12/02 10:46:14;;;;;;;47.40;21.98;;;;;;;;;;4950290;29;20031;-71
2022/12/02 10:48:41;;;;;;;52.50;22.27;;;;;;;;;;4949070;29;20043;-71
2022/12/02 10:51:11;;;;;;;52.00;21.35;;;;;;;;;;4949925;28;20627;-75
2022/12/02 10:53:37;;;;;;;46.78;21.42;;;;;;;;;;4957426;28;20062;-72
2022/12/02 10:56:03;;;;;;;46.88;20.15;;;;;;;;;;4947389;28;20103;-72
2022/12/02 10:58:30;;;;;;;47.45;19.65;;;;;;;;;;4951249;29;20074;-77
2022/12/02 11:01:02;;;;;;;51.97;20.85;;;;;;;;;;5022400;27;2821756;-79
2022/12/02 11:03:28;;;;;;;53.40;20.27;;;;;;;;;;5104943;28;20131;-73
2022/12/02 11:05:54;;;;;;;48.83;19.30;;;;;;;;;;5107000;28;20403;-77
2022/12/02 11:08:25;;;;;;;40.40;19.88;;;;;;;;;;5102151;28;20040;-73
2022/12/02 11:11:10;;;;;;;46.35;20.20;;;;;;;;;;5107488;28;20923;-73
2022/12/02 11:13:54;;;;;;;46.95;20.08;;;;;;;;;;5096733;28;20099;-74
2022/12/02 11:16:30;;;;;;;67.07;31.95;;;;;;;;;;5100248;28;20111;-73
2022/12/02 11:18:57;;;;;;;49.30;22.15;;;;;;;;;;5107576;28;20043;-75
2022/12/02 11:21:23;;;;;;;42.33;20.30;;;;;;;;;;5100288;28;20414;-74
2022/12/02 11:24:09;;;;;;;45.53;20.63;;;;;;;;;;5103992;28;20554;-73
2022/12/02 11:26:58;;;;;;;45.55;19.58;;;;;;;;;;5104280;28;20031;-73
2022/12/02 11:29:25;;;;;;;53.92;21.95;;;;;;;;;;5102246;28;20020;-73
2022/12/02 11:32:01;;;;;;;49.42;22.05;;;;;;;;;;5107480;28;20047;-76
2022/12/02 11:34:47;;;;;;;48.92;20.85;;;;;;;;;;5111073;28;20098;-80
2022/12/02 11:37:26;;;;;;;48.03;21.42;;;;;;;;;;5092530;28;20047;-74
2022/12/02 11:39:58;;;;;;;48.88;22.48;;;;;;;;;;5109336;28;20042;-73
2022/12/02 11:42:28;;;;;;;44.20;21.15;;;;;;;;;;5116127;28;20030;-73
2022/12/02 11:45:09;;;;;;;45.67;21.27;;;;;;;;;;5118103;28;20085;-72
2022/12/02 11:47:35;;;;;;;45.17;20.02;;;;;;;;;;5098948;28;20146;-78
2022/12/02 11:50:14;;;;;;;49.15;21.92;;;;;;;;;;5103279;28;20032;-75
2022/12/02 11:52:42;;;;;;;56.38;27.10;;;;;;;;;;5105850;28;20036;-74
2022/12/02 11:55:15;;;;;;;51.92;25.80;;;;;;;;;;5125140;28;20023;-72
2022/12/02 11:57:44;;;;;;;45.65;21.98;;;;;;;;;;5105889;28;20032;-75
2022/12/02 12:00:19;;;;;;;47.53;23.17;;;;;;;;;;5103844;28;20116;-73
2022/12/02 12:02:45;;;;;;;49.80;24.25;;;;;;;;;;5093422;28;20119;-73
2022/12/02 12:05:11;;;;;;;47.25;23.20;;;;;;;;;;5102913;28;20039;-72
2022/12/02 12:07:45;;;;;;;44.78;22.88;;;;;;;;;;5095390;28;20028;-73
2022/12/02 12:10:26;;;;;;;49.03;24.77;;;;;;;;;;5101720;28;20051;-72
2022/12/02 12:13:12;;;;;;;47.42;24.13;;;;;;;;;;5078244;28;20029;-72
2022/12/02 12:15:57;;;;;;;47.67;24.88;;;;;;;;;;5075226;28;20046;-74
2022/12/02 12:18:45;;;;;;;46.58;25.48;;;;;;;;;;5090910;28;20024;-74
2022/12/02 12:21:32;;;;;;;48.17;23.70;;;;;;;;;;5075608;28;20048;-71
2022/12/02 12:24:20;;;;;;;46.47;24.13;;;;;;;;;;5077863;28;20528;-72
2022/12/02 12:26:56;;;;;;;49.30;24.95;;;;;;;;;;5105341;28;20036;-74
2022/12/02 12:29:27;;;;;;;46.47;24.92;;;;;;;;;;5091773;28;20107;-72
2022/12/02 12:31:53;;;;;;;49.30;26.02;;;;;;;;;;5090569;28;20110;-73
2022/12/02 12:34:19;;;;;;;52.17;27.40;;;;;;;;;;5090355;28;20089;-73
2022/12/02 12:36:45;;;;;;;52.45;28.63;;;;;;;;;;5091540;28;20044;-72
2022/12/02 12:39:12;;;;;;;50.83;28.20;;;;;;;;;;5085445;28;20040;-73
2022/12/02 12:41:39;;;;;;;48.10;26.88;;;;;;;;;;5074673;28;20337;-72
2022/12/02 12:44:05;;;;;;;49.75;26.20;;;;;;;;;;5109938;28;20431;-74
2022/12/02 12:46:31;;;;;;;48.15;25.75;;;;;;;;;;5090218;28;20389;-72
2022/12/02 12:48:58;;;;;;;51.70;29.17;;;;;;;;;;5090329;28;20066;-73
2022/12/02 12:51:24;;;;;;;54.67;28.67;;;;;;;;;;5090435;28;20073;-74
2022/12/02 12:53:50;;;;;;;59.30;29.48;;;;;;;;;;5084916;28;20028;-72
2022/12/02 12:56:16;;;;;;;49.50;28.00;;;;;;;;;;5089581;28;20059;-74
2022/12/02 12:58:42;;;;;;;50.00;29.17;;;;;;;;;;5091675;28;20043;-72
2022/12/02 13:01:09;;;;;;;48.72;28.58;;;;;;;;;;5098137;28;20102;-73
2022/12/02 13:03:35;;;;;;;53.55;28.92;;;;;;;;;;5078832;28;20036;-72
2022/12/02 13:06:01;;;;;;;46.63;27.33;;;;;;;;;;5091010;28;20024;-74
2022/12/02 13:08:27;;;;;;;50.50;27.35;;;;;;;;;;5089782;28;20032;-76
2022/12/02 13:10:53;;;;;;;50.53;28.73;;;;;;;;;;5090140;28;20077;-73
2022/12/02 13:13:19;;;;;;;47.50;28.05;;;;;;;;;;5087562;28;20081;-73
2022/12/02 13:15:45;;;;;;;47.25;26.73;;;;;;;;;;5089585;28;20032;-78
2022/12/02 13:18:11;;;;;;;54.90;29.40;;;;;;;;;;5089266;28;20059;-73
2022/12/02 13:20:37;;;;;;;51.55;29.17;;;;;;;;;;5089764;28;20048;-72
2022/12/02 13:23:04;;;;;;;52.28;29.42;;;;;;;;;;5089465;28;20323;-73
2022/12/02 13:25:30;;;;;;;50.80;28.65;;;;;;;;;;5089568;28;20028;-71
2022/12/02 13:27:56;;;;;;;50.97;27.75;;;;;;;;;;5090169;28;20032;-73
2022/12/02 13:30:22;;;;;;;50.75;28.33;;;;;;;;;;5087816;28;20055;-71
2022/12/02 13:32:50;;;;;;;50.90;28.75;;;;;;;;;;5072800;28;20086;-72
2022/12/02 13:35:16;;;;;;;47.50;27.13;;;;;;;;;;5111040;28;20043;-74
2022/12/02 13:37:43;;;;;;;44.63;27.48;;;;;;;;;;5088891;28;20469;-72
2022/12/02 13:40:13;;;;;;;47.63;26.80;;;;;;;;;;5088999;28;20123;-77
2022/12/02 13:42:39;;;;;;;48.60;29.23;;;;;;;;;;5087977;28;20535;-77
2022/12/02 13:45:05;;;;;;;51.13;28.60;;;;;;;;;;5082633;28;20373;-72
2022/12/02 13:47:31;;;;;;;48.22;27.58;;;;;;;;;;5071028;28;20791;-71
2022/12/02 13:49:58;;;;;;;48.75;27.00;;;;;;;;;;5089750;28;20396;-72
2022/12/02 13:52:24;;;;;;;49.50;27.65;;;;;;;;;;5082279;28;20385;-75
2022/12/02 13:54:50;;;;;;;47.53;27.08;;;;;;;;;;5089483;28;20032;-70
2022/12/02 13:57:16;;;;;;;45.58;27.35;;;;;;;;;;5087672;28;20061;-73
2022/12/02 13:59:42;;;;;;;47.70;27.95;;;;;;;;;;5087450;28;20060;-72
2022/12/02 14:02:11;;;;;;;53.70;29.85;;;;;;;;;;5087801;28;20043;-72
2022/12/02 14:04:38;;;;;;;46.75;27.10;;;;;;;;;;5089990;28;20100;-73
2022/12/02 14:07:04;;;;;;;46.05;26.63;;;;;;;;;;5091387;28;20028;-71
2022/12/02 14:09:30;;;;;;;48.88;28.40;;;;;;;;;;5081985;28;20051;-73
2022/12/02 14:11:56;;;;;;;46.08;28.05;;;;;;;;;;5069230;28;20107;-75
2022/12/02 14:14:23;;;;;;;51.40;28.45;;;;;;;;;;5086924;28;20024;-73
2022/12/02 14:16:49;;;;;;;48.95;28.95;;;;;;;;;;5089585;28;20050;-71
2022/12/02 14:19:15;;;;;;;50.92;27.80;;;;;;;;;;5089240;28;20032;-74
2022/12/02 14:21:41;;;;;;;51.28;28.75;;;;;;;;;;5088648;28;20081;-72
2022/12/02 14:24:07;;;;;;;48.92;27.90;;;;;;;;;;5091496;28;20127;-77
2022/12/02 14:26:33;;;;;;;49.28;28.67;;;;;;;;;;5107174;28;20038;-74
2022/12/02 14:28:59;;;;;;;51.42;28.73;;;;;;;;;;5084831;28;20542;-72